createdAt,value
2019-01-12T00:01:50.116Z,3.67
2019-01-12T00:04:17.195Z,3.17
2019-01-12T00:06:44.289Z,2.62
2019-01-12T00:09:12.386Z,3.85
2019-01-12T00:11:39.710Z,2.95
2019-01-12T00:14:06.752Z,3.70
2019-01-12T00:16:33.796Z,3.55
2019-01-12T00:19:00.842Z,3.62
2019-01-12T00:21:27.908Z,3.00
2019-01-12T00:23:54.958Z,3.50
2019-01-12T00:26:22.002Z,3.45
2019-01-12T00:28:49.083Z,3.50
2019-01-12T00:31:16.188Z,4.20
2019-01-12T00:33:43.217Z,3.42
2019-01-12T00:36:10.260Z,3.45
2019-01-12T00:38:37.303Z,3.60
2019-01-12T00:41:04.350Z,4.25
2019-01-12T00:43:31.409Z,3.70
2019-01-12T00:45:58.491Z,3.98
2019-01-12T00:48:25.564Z,3.62
2019-01-12T00:50:52.627Z,4.00
2019-01-12T00:53:19.686Z,3.62
2019-01-12T00:55:46.781Z,3.37
2019-01-12T00:58:13.814Z,3.60
2019-01-12T01:00:40.871Z,3.70
2019-01-12T01:03:07.937Z,4.00
2019-01-12T01:05:34.974Z,4.10
2019-01-12T01:08:02.046Z,4.05
2019-01-12T01:10:29.116Z,4.15
2019-01-12T01:12:56.181Z,4.67
2019-01-12T01:15:23.239Z,4.03
2019-01-12T01:17:50.344Z,4.70
2019-01-12T01:20:17.502Z,4.80
2019-01-12T01:22:44.546Z,4.15
2019-01-12T01:25:11.696Z,4.85
2019-01-12T01:27:38.738Z,5.03
2019-01-12T01:30:09.104Z,4.12
2019-01-12T01:32:36.159Z,4.85
2019-01-12T01:35:03.749Z,5.03
2019-01-12T01:37:30.807Z,4.70
2019-01-12T01:39:57.843Z,4.30
2019-01-12T01:42:24.913Z,4.53
2019-01-12T01:44:51.977Z,4.45
2019-01-12T01:47:19.035Z,4.42
2019-01-12T01:49:46.124Z,5.00
2019-01-12T01:52:13.169Z,4.55
2019-01-12T01:54:40.201Z,5.00
2019-01-12T01:57:07.239Z,4.70
2019-01-12T01:59:34.295Z,4.55
2019-01-12T02:02:01.334Z,4.72
2019-01-12T02:04:28.372Z,5.08
2019-01-12T02:06:55.422Z,4.42
2019-01-12T02:09:22.472Z,5.65
2019-01-12T02:11:49.514Z,4.80
2019-01-12T02:14:16.660Z,4.53
2019-01-12T02:16:43.688Z,4.35
2019-01-12T02:19:10.720Z,5.37
2019-01-12T02:21:37.770Z,5.85
2019-01-12T02:24:04.817Z,5.55
2019-01-12T02:26:31.849Z,5.00
2019-01-12T02:28:58.882Z,4.05
2019-01-12T02:31:25.941Z,4.20
2019-01-12T02:33:53.012Z,4.65
2019-01-12T02:36:20.050Z,3.45
2019-01-12T02:38:47.082Z,4.47
2019-01-12T02:41:14.121Z,4.62
2019-01-12T02:43:41.156Z,4.70
2019-01-12T02:46:08.180Z,4.78
2019-01-12T02:48:35.223Z,4.80
2019-01-12T02:51:02.242Z,4.75
2019-01-12T02:53:29.267Z,3.83
2019-01-12T02:55:56.289Z,3.65
2019-01-12T02:58:23.333Z,3.70
2019-01-12T03:00:50.401Z,4.50
2019-01-12T03:03:17.454Z,4.70
2019-01-12T03:05:44.473Z,4.10
2019-01-12T03:08:11.574Z,4.70
2019-01-12T03:10:38.544Z,4.67
2019-01-12T03:13:05.606Z,4.40
2019-01-12T03:15:32.648Z,5.08
2019-01-12T03:17:59.698Z,3.92
2019-01-12T03:20:26.745Z,4.87
2019-01-12T03:22:53.810Z,4.67
2019-01-12T03:25:20.853Z,4.92
2019-01-12T03:27:47.891Z,4.58
2019-01-12T03:30:16.579Z,4.70
2019-01-12T03:32:43.646Z,5.60
2019-01-12T03:35:10.752Z,5.42
2019-01-12T03:37:37.816Z,5.87
2019-01-12T03:40:06.527Z,5.65
2019-01-12T03:42:33.538Z,5.50
2019-01-12T03:45:00.599Z,5.37
2019-01-12T03:47:27.626Z,5.50
2019-01-12T03:49:54.683Z,5.55
2019-01-12T03:52:21.729Z,6.05
2019-01-12T03:54:48.776Z,5.37
2019-01-12T03:57:15.818Z,4.95
2019-01-12T03:59:42.846Z,5.05
2019-01-12T04:02:09.866Z,5.08
2019-01-12T04:04:38.027Z,5.70
2019-01-12T04:07:05.134Z,5.60
2019-01-12T04:09:32.168Z,4.90
2019-01-12T04:11:59.202Z,4.92
2019-01-12T04:14:26.233Z,5.20
2019-01-12T04:16:53.346Z,5.28
2019-01-12T04:19:20.366Z,4.60
2019-01-12T04:21:47.431Z,4.97
2019-01-12T04:24:14.448Z,5.65
2019-01-12T04:26:41.492Z,5.08
2019-01-12T04:29:08.509Z,5.22
2019-01-12T04:31:35.535Z,4.75
2019-01-12T04:34:02.564Z,5.30
2019-01-12T04:36:29.602Z,5.42
2019-01-12T04:38:56.649Z,5.33
2019-01-12T04:41:23.676Z,5.17
2019-01-12T04:43:50.722Z,5.45
2019-01-12T04:46:17.759Z,5.22
2019-01-12T04:48:44.791Z,5.80
2019-01-12T04:51:11.828Z,4.80
2019-01-12T04:53:38.973Z,4.75
2019-01-12T04:56:05.994Z,5.75
2019-01-12T04:58:33.031Z,4.90
2019-01-12T05:01:00.060Z,4.50
2019-01-12T05:03:27.119Z,5.10
2019-01-12T05:05:54.158Z,4.45
2019-01-12T05:08:21.202Z,5.00
2019-01-12T05:10:48.218Z,5.95
2019-01-12T05:13:15.253Z,4.70
2019-01-12T05:15:42.306Z,5.05
2019-01-12T05:18:09.345Z,5.10
2019-01-12T05:20:36.389Z,5.03
2019-01-12T05:23:03.419Z,4.20
2019-01-12T05:25:30.445Z,4.97
2019-01-12T05:27:57.477Z,4.42
2019-01-12T05:30:24.520Z,4.40
2019-01-12T05:32:51.541Z,5.47
2019-01-12T05:35:18.633Z,4.47
2019-01-12T05:37:45.683Z,4.60
2019-01-12T05:40:12.877Z,4.35
2019-01-12T05:42:39.950Z,3.58
2019-01-12T05:45:07.452Z,4.03
2019-01-12T05:47:34.563Z,4.55
2019-01-12T05:50:01.641Z,4.00
2019-01-12T05:52:29.005Z,4.25
2019-01-12T05:54:56.111Z,3.85
2019-01-12T05:57:23.172Z,4.17
2019-01-12T05:59:50.299Z,3.75
2019-01-12T06:02:17.321Z,4.10
2019-01-12T06:04:44.394Z,4.60
2019-01-12T06:07:11.453Z,4.12
2019-01-12T06:09:38.532Z,4.95
2019-01-12T06:12:05.588Z,3.90
2019-01-12T06:14:32.675Z,4.40
2019-01-12T06:16:59.750Z,4.67
2019-01-12T06:19:26.789Z,4.95
2019-01-12T06:21:53.842Z,5.35
2019-01-12T06:24:20.874Z,5.35
2019-01-12T06:26:47.894Z,5.20
2019-01-12T06:29:14.957Z,4.50
2019-01-12T06:31:41.966Z,4.45
2019-01-12T06:34:09.005Z,5.60
2019-01-12T06:36:36.075Z,4.80
2019-01-12T06:39:06.912Z,4.78
2019-01-12T06:41:33.993Z,5.72
2019-01-12T06:44:00.982Z,4.80
2019-01-12T06:46:28.037Z,5.62
2019-01-12T06:48:55.068Z,5.22
2019-01-12T06:51:22.106Z,5.58
2019-01-12T06:53:49.198Z,4.80
2019-01-12T06:56:16.218Z,5.58
2019-01-12T06:58:43.276Z,6.00
2019-01-12T07:01:10.327Z,5.95
2019-01-12T07:03:37.368Z,4.65
2019-01-12T07:06:04.422Z,4.97
2019-01-12T07:08:31.796Z,5.78
2019-01-12T07:10:58.837Z,4.70
2019-01-12T07:13:25.875Z,5.28
2019-01-12T07:15:52.972Z,5.15
2019-01-12T07:18:20.006Z,5.67
2019-01-12T07:20:47.064Z,5.20
2019-01-12T07:23:14.111Z,5.03
2019-01-12T07:25:41.159Z,5.45
2019-01-12T07:28:08.183Z,5.35
2019-01-12T07:30:35.217Z,5.10
2019-01-12T07:33:02.261Z,5.20
2019-01-12T07:35:29.316Z,5.60
2019-01-12T07:37:56.357Z,5.05
2019-01-12T07:40:23.415Z,5.03
2019-01-12T07:42:50.441Z,3.98
2019-01-12T07:45:17.481Z,4.08
2019-01-12T07:47:44.501Z,5.10
2019-01-12T07:50:12.816Z,5.05
2019-01-12T07:52:39.857Z,5.20
2019-01-12T07:55:07.136Z,5.42
2019-01-12T07:57:34.188Z,4.90
2019-01-12T08:00:02.262Z,5.22
2019-01-12T08:02:29.298Z,4.72
2019-01-12T08:04:56.329Z,5.15
2019-01-12T08:07:23.371Z,4.97
2019-01-12T08:09:50.421Z,4.53
2019-01-12T08:12:17.441Z,4.95
2019-01-12T08:14:44.478Z,4.53
2019-01-12T08:17:11.559Z,5.22
2019-01-12T08:19:38.590Z,5.25
2019-01-12T08:22:05.634Z,4.45
2019-01-12T08:24:32.682Z,5.53
2019-01-12T08:26:59.758Z,5.30
2019-01-12T08:29:26.781Z,5.50
2019-01-12T08:31:53.831Z,5.08
2019-01-12T08:34:20.901Z,5.95
2019-01-12T08:36:47.921Z,4.83
2019-01-12T08:39:14.985Z,4.15
2019-01-12T08:41:42.038Z,4.72
2019-01-12T08:44:09.064Z,5.03
2019-01-12T08:46:36.090Z,5.40
2019-01-12T08:49:03.141Z,4.90
2019-01-12T08:51:30.178Z,4.80
2019-01-12T08:53:57.250Z,4.25
2019-01-12T08:56:24.345Z,6.00
2019-01-12T08:58:51.371Z,4.75
2019-01-12T09:01:18.398Z,5.45
2019-01-12T09:03:45.440Z,5.17
2019-01-12T09:06:12.508Z,5.65
2019-01-12T09:08:39.540Z,5.03
2019-01-12T09:11:06.620Z,5.72
2019-01-12T09:13:33.655Z,5.30
2019-01-12T09:16:00.726Z,6.85
2019-01-12T09:18:27.798Z,6.00
2019-01-12T09:20:54.858Z,5.65
2019-01-12T09:23:22.759Z,5.45
2019-01-12T09:25:49.820Z,6.03
2019-01-12T09:28:16.866Z,5.95
2019-01-12T09:30:48.402Z,5.55
2019-01-12T09:33:13.161Z,5.85
2019-01-12T09:35:40.294Z,6.60
2019-01-12T09:38:07.354Z,5.95
2019-01-12T09:40:34.383Z,6.62
2019-01-12T09:43:01.434Z,5.20
2019-01-12T09:45:28.458Z,4.90
2019-01-12T09:47:55.498Z,5.40
2019-01-12T09:50:22.587Z,5.05
2019-01-12T09:52:50.088Z,5.00
2019-01-12T09:55:17.144Z,5.25
2019-01-12T09:57:44.190Z,4.67
2019-01-12T10:00:19.293Z,4.62
2019-01-12T10:02:46.465Z,4.55
2019-01-12T10:05:13.513Z,4.60
2019-01-12T10:07:40.555Z,5.03
2019-01-12T10:10:10.429Z,4.30
2019-01-12T10:12:37.489Z,4.78
2019-01-12T10:15:05.124Z,4.20
2019-01-12T10:17:32.180Z,4.67
2019-01-12T10:19:59.220Z,5.30
2019-01-12T10:22:28.635Z,5.22
2019-01-12T10:24:55.239Z,4.80
2019-01-12T10:27:22.294Z,5.20
2019-01-12T10:29:49.384Z,4.10
2019-01-12T10:32:16.413Z,3.62
2019-01-12T10:34:43.473Z,4.00
2019-01-12T10:37:10.551Z,4.50
2019-01-12T10:39:37.629Z,4.55
2019-01-12T10:42:04.679Z,4.42
2019-01-12T10:44:31.707Z,4.47
2019-01-12T10:46:58.761Z,4.35
2019-01-12T10:49:25.819Z,4.20
2019-01-12T10:51:52.882Z,4.42
2019-01-12T10:54:19.935Z,4.53
2019-01-12T10:56:46.975Z,4.55
2019-01-12T10:59:14.032Z,3.85
2019-01-12T11:01:41.108Z,4.00
2019-01-12T11:04:08.132Z,4.45
2019-01-12T11:06:35.174Z,4.33
2019-01-12T11:09:03.796Z,3.92
2019-01-12T11:11:31.475Z,3.72
2019-01-12T11:13:58.532Z,3.62
2019-01-12T11:16:25.630Z,3.80
2019-01-12T11:18:52.689Z,4.25
2019-01-12T11:21:19.786Z,3.83
2019-01-12T11:23:46.849Z,3.67
2019-01-12T11:26:13.917Z,4.30
2019-01-12T11:28:41.081Z,3.70
2019-01-12T11:31:08.453Z,3.15
2019-01-12T11:33:35.530Z,3.40
2019-01-12T11:36:02.597Z,4.10
2019-01-12T11:38:29.675Z,3.72
2019-01-12T11:40:56.769Z,3.25
2019-01-12T11:43:23.877Z,3.70
2019-01-12T11:45:50.946Z,4.10
2019-01-12T11:48:18.016Z,4.00
2019-01-12T11:50:45.102Z,3.27
2019-01-12T11:53:12.228Z,3.75
2019-01-12T11:55:39.324Z,3.72
2019-01-12T11:58:06.369Z,3.67
2019-01-12T12:00:33.422Z,3.40
2019-01-12T12:03:00.489Z,4.58
2019-01-12T12:05:27.533Z,4.10
2019-01-12T12:07:54.864Z,4.12
2019-01-12T12:10:22.067Z,4.03
2019-01-12T12:12:49.141Z,3.80
2019-01-12T12:15:16.942Z,4.12
2019-01-12T12:17:44.025Z,4.33
2019-01-12T12:20:16.359Z,4.10
2019-01-12T12:22:43.397Z,4.90
2019-01-12T12:25:10.462Z,4.25
2019-01-12T12:27:37.506Z,3.72
2019-01-12T12:30:06.501Z,3.40
2019-01-12T12:32:33.564Z,4.20
2019-01-12T12:35:00.621Z,3.55
2019-01-12T12:37:27.668Z,3.30
2019-01-12T12:39:54.743Z,4.15
2019-01-12T12:42:21.869Z,3.72
2019-01-12T12:44:48.940Z,3.35
2019-01-12T12:47:15.985Z,4.00
2019-01-12T12:49:43.088Z,3.80
2019-01-12T12:52:10.145Z,3.80
2019-01-12T12:54:37.244Z,4.05
2019-01-12T12:57:04.327Z,3.70
2019-01-12T12:59:31.409Z,4.40
2019-01-12T13:01:58.507Z,4.85
2019-01-12T13:04:25.597Z,4.58
2019-01-12T13:06:52.701Z,3.45
2019-01-12T13:09:19.788Z,3.12
2019-01-12T13:11:46.903Z,3.70
2019-01-12T13:14:13.998Z,3.47
2019-01-12T13:16:41.111Z,3.40
2019-01-12T13:19:08.176Z,3.30
2019-01-12T13:21:35.287Z,4.30
2019-01-12T13:24:02.410Z,4.20
2019-01-12T13:26:29.456Z,4.08
2019-01-12T13:28:56.556Z,4.53
2019-01-12T13:31:23.728Z,4.62
2019-01-12T13:33:50.959Z,4.45
2019-01-12T13:36:18.082Z,4.30
2019-01-12T13:38:45.232Z,5.15
2019-01-12T13:41:12.334Z,4.60
2019-01-12T13:43:39.484Z,5.10
2019-01-12T13:46:06.578Z,4.60
2019-01-12T13:48:33.690Z,4.45
2019-01-12T13:51:00.808Z,4.67
2019-01-12T13:53:27.914Z,5.20
2019-01-12T13:55:57.296Z,4.97
2019-01-12T13:58:24.397Z,5.28
2019-01-12T14:00:51.558Z,4.55
2019-01-12T14:03:18.923Z,4.92
2019-01-12T14:05:46.305Z,5.33
2019-01-12T14:08:13.424Z,4.12
2019-01-12T14:10:40.557Z,4.67
2019-01-12T14:13:07.982Z,4.22
2019-01-12T14:15:35.314Z,5.75
2019-01-12T14:18:02.630Z,4.15
2019-01-12T14:20:34.706Z,3.80
2019-01-12T14:23:01.815Z,3.95
2019-01-12T14:25:28.947Z,4.30
2019-01-12T14:27:56.016Z,4.03
2019-01-12T14:30:23.093Z,3.70
2019-01-12T14:32:50.240Z,3.98
2019-01-12T14:35:17.536Z,4.00
2019-01-12T14:37:44.647Z,4.25
2019-01-12T14:40:13.916Z,6.65
2019-01-12T14:42:41.321Z,5.22
2019-01-12T14:45:11.737Z,4.28
2019-01-12T14:47:38.813Z,4.15
2019-01-12T14:50:06.777Z,4.22
2019-01-12T14:52:33.853Z,3.52
2019-01-12T14:55:00.981Z,3.80
2019-01-12T14:57:28.117Z,5.45
2019-01-12T14:59:55.250Z,4.40
2019-01-12T15:02:23.197Z,6.70
2019-01-12T15:04:50.430Z,3.33
2019-01-12T15:07:17.543Z,4.50
2019-01-12T15:09:44.625Z,3.65
2019-01-12T15:12:13.606Z,3.60
2019-01-12T15:14:40.604Z,4.50
2019-01-12T15:17:07.699Z,3.92
2019-01-12T15:19:34.851Z,4.33
2019-01-12T15:22:02.012Z,3.98
2019-01-12T15:24:29.097Z,3.90
2019-01-12T15:26:56.241Z,4.22
2019-01-12T15:29:23.366Z,3.30
2019-01-12T15:31:50.488Z,3.83
2019-01-12T15:34:17.594Z,3.70
2019-01-12T15:36:45.142Z,4.50
2019-01-12T15:39:12.291Z,3.83
2019-01-12T15:41:39.426Z,4.83
2019-01-12T15:44:06.576Z,4.37
2019-01-12T15:46:33.687Z,3.60
2019-01-12T15:49:00.869Z,5.00
2019-01-12T15:51:30.749Z,4.37
2019-01-12T15:53:57.891Z,4.90
2019-01-12T15:56:25.011Z,3.92
2019-01-12T15:58:52.144Z,3.15
2019-01-12T16:01:19.306Z,2.95
2019-01-12T16:03:46.442Z,4.28
2019-01-12T16:06:13.607Z,4.33
2019-01-12T16:08:40.711Z,3.80
2019-01-12T16:11:08.108Z,3.95
2019-01-12T16:13:35.230Z,3.52
2019-01-12T16:16:02.397Z,3.55
2019-01-12T16:18:29.783Z,5.08
2019-01-12T16:20:56.936Z,4.97
2019-01-12T16:23:24.077Z,4.45
2019-01-12T16:25:51.309Z,6.10
2019-01-12T16:28:23.251Z,5.95
2019-01-12T16:30:50.519Z,14.45
2019-01-12T16:33:17.824Z,7.35
2019-01-12T16:35:44.924Z,7.12
2019-01-12T16:38:12.094Z,9.60
2019-01-12T16:40:39.236Z,9.85
2019-01-12T16:43:07.394Z,5.40
2019-01-12T16:45:34.537Z,6.12
2019-01-12T16:48:01.993Z,4.17
2019-01-12T16:50:31.173Z,5.37
2019-01-12T16:52:58.586Z,4.33
2019-01-12T16:55:25.732Z,4.53
2019-01-12T16:57:52.892Z,4.35
2019-01-12T17:00:27.622Z,4.40
2019-01-12T17:02:54.784Z,5.30
2019-01-12T17:05:22.032Z,4.80
2019-01-12T17:07:50.327Z,5.00
2019-01-12T17:10:18.434Z,4.60
2019-01-12T17:12:47.548Z,3.75
2019-01-12T17:15:16.593Z,3.75
2019-01-12T17:17:43.750Z,3.72
2019-01-12T17:20:16.263Z,4.85
2019-01-12T17:22:43.622Z,3.67
2019-01-12T17:25:10.755Z,4.83
2019-01-12T17:27:38.232Z,9.53
2019-01-12T17:30:08.838Z,5.20
2019-01-12T17:32:35.983Z,4.70
2019-01-12T17:35:03.940Z,4.55
2019-01-12T17:37:31.059Z,4.55
2019-01-12T17:39:58.214Z,4.90
2019-01-12T17:42:28.181Z,4.12
2019-01-12T17:44:55.294Z,4.65
2019-01-12T17:47:22.472Z,4.50
2019-01-12T17:49:49.623Z,4.47
2019-01-12T17:52:17.039Z,5.10
2019-01-12T17:54:44.185Z,4.10
2019-01-12T17:57:11.335Z,4.47
2019-01-12T17:59:38.761Z,4.35
2019-01-12T18:02:06.006Z,4.53
2019-01-12T18:04:33.189Z,4.72
2019-01-12T18:07:00.314Z,5.80
2019-01-12T18:09:27.549Z,4.75
2019-01-12T18:11:54.719Z,4.10
2019-01-12T18:14:21.905Z,4.58
2019-01-12T18:16:51.066Z,5.37
2019-01-12T18:19:18.198Z,4.03
2019-01-12T18:21:45.359Z,4.85
2019-01-12T18:24:12.488Z,4.25
2019-01-12T18:26:39.687Z,4.12
2019-01-12T18:29:07.102Z,3.95
2019-01-12T18:31:34.265Z,4.62
2019-01-12T18:34:01.464Z,4.17
2019-01-12T18:36:30.458Z,5.30
2019-01-12T18:38:57.637Z,3.85
2019-01-12T18:41:24.853Z,3.45
2019-01-12T18:43:52.033Z,3.90
2019-01-12T18:46:19.190Z,3.92
2019-01-12T18:48:46.825Z,3.40
2019-01-12T18:51:16.369Z,3.83
2019-01-12T18:53:44.937Z,3.62
2019-01-12T18:56:12.544Z,4.15
2019-01-12T18:58:39.892Z,3.60
2019-01-12T19:01:07.134Z,3.27
2019-01-12T19:03:34.768Z,4.37
2019-01-12T19:06:02.217Z,3.35
2019-01-12T19:08:29.455Z,3.50
2019-01-12T19:10:56.672Z,8.35
2019-01-12T19:13:24.280Z,3.42
2019-01-12T19:15:52.885Z,3.20
2019-01-12T19:18:20.913Z,3.10
2019-01-12T19:20:48.535Z,4.70
2019-01-12T19:23:18.826Z,5.00
2019-01-12T19:25:47.692Z,4.05
2019-01-12T19:28:16.092Z,3.20
2019-01-12T19:30:43.465Z,3.30
2019-01-12T19:33:10.848Z,3.95
2019-01-12T19:35:38.281Z,3.40
2019-01-12T19:38:05.823Z,4.12
2019-01-12T19:40:35.131Z,4.67
2019-01-12T19:43:04.704Z,2.90
2019-01-12T19:45:34.348Z,3.77
2019-01-12T19:48:02.115Z,3.83
2019-01-12T19:50:29.478Z,4.55
2019-01-12T19:52:57.220Z,3.58
2019-01-12T19:55:24.579Z,4.47
2019-01-12T19:57:52.333Z,4.28
2019-01-12T20:00:24.753Z,4.03
2019-01-12T20:02:51.983Z,3.60
2019-01-12T20:05:19.262Z,4.40
2019-01-12T20:07:48.016Z,3.37
2019-01-12T20:10:18.493Z,3.45
2019-01-12T20:12:45.776Z,3.20
2019-01-12T20:15:20.684Z,4.03
2019-01-12T20:17:48.807Z,3.80
2019-01-12T20:20:17.431Z,3.10
2019-01-12T20:22:45.028Z,2.60
2019-01-12T20:25:19.601Z,3.12
2019-01-12T20:27:46.858Z,3.67
2019-01-12T20:30:28.052Z,3.15
2019-01-12T20:33:21.074Z,2.85
2019-01-12T20:36:31.321Z,2.92
2019-01-12T20:39:34.027Z,2.30
2019-01-12T20:42:25.614Z,2.92
2019-01-12T20:45:52.884Z,2.62
2019-01-12T20:48:37.263Z,2.90
2019-01-12T20:52:01.510Z,2.58
2019-01-12T20:55:03.568Z,3.20
2019-01-12T20:57:40.634Z,2.80
2019-01-12T21:00:55.227Z,2.75
2019-01-12T21:03:52.352Z,2.83
2019-01-12T21:06:38.708Z,3.10
2019-01-12T21:09:37.504Z,4.05
2019-01-12T21:12:45.232Z,2.70
2019-01-12T21:15:17.820Z,2.80
2019-01-12T21:17:45.628Z,3.12
2019-01-12T21:20:13.016Z,3.40
2019-01-12T21:22:40.358Z,2.70
2019-01-12T21:25:07.873Z,3.00
2019-01-12T21:27:36.628Z,2.45
2019-01-12T21:30:07.813Z,2.58
2019-01-12T21:32:37.784Z,2.55
2019-01-12T21:35:06.922Z,2.20
2019-01-12T21:37:35.605Z,1.90
2019-01-12T21:40:03.998Z,1.92
2019-01-12T21:42:31.244Z,1.90
2019-01-12T21:44:58.542Z,1.92
2019-01-12T21:47:26.807Z,1.50
2019-01-12T21:49:54.017Z,1.60
2019-01-12T21:52:22.507Z,2.15
2019-01-12T21:54:49.725Z,1.70
2019-01-12T21:57:18.953Z,1.67
2019-01-12T21:59:49.112Z,2.30
2019-01-12T22:02:16.379Z,1.57
2019-01-12T22:04:43.589Z,1.57
2019-01-12T22:07:11.139Z,1.50
2019-01-12T22:09:38.375Z,1.62
2019-01-12T22:12:05.569Z,1.72
2019-01-12T22:14:32.758Z,1.72
2019-01-12T22:17:01.307Z,1.25
2019-01-12T22:19:29.446Z,1.57
2019-01-12T22:21:56.625Z,1.60
2019-01-12T22:24:23.914Z,1.80
2019-01-12T22:26:51.150Z,1.40
2019-01-12T22:29:18.405Z,1.67
2019-01-12T22:31:45.611Z,1.40
2019-01-12T22:34:13.889Z,1.27
2019-01-12T22:36:41.064Z,1.20
2019-01-12T22:39:09.049Z,1.30
2019-01-12T22:41:36.740Z,1.60
2019-01-12T22:44:06.480Z,1.10
2019-01-12T22:46:33.690Z,1.50
2019-01-12T22:49:00.887Z,2.67
2019-01-12T22:51:28.088Z,1.70
2019-01-12T22:53:55.243Z,1.30
2019-01-12T22:56:22.721Z,1.20
2019-01-12T22:58:49.931Z,0.90
2019-01-12T23:01:41.479Z,1.05
2019-01-12T23:04:08.975Z,1.02
2019-01-12T23:06:36.210Z,1.22
2019-01-12T23:09:07.952Z,1.47
2019-01-12T23:11:35.173Z,1.05
2019-01-12T23:14:02.300Z,1.07
2019-01-12T23:16:30.468Z,0.90
2019-01-12T23:18:57.681Z,0.95
2019-01-12T23:21:24.965Z,1.10
2019-01-12T23:23:52.150Z,0.90
2019-01-12T23:26:19.283Z,0.80
2019-01-12T23:28:46.440Z,0.70
2019-01-12T23:31:13.565Z,0.88
2019-01-12T23:33:40.703Z,0.88
2019-01-12T23:36:07.843Z,0.90
2019-01-12T23:38:34.981Z,1.00
2019-01-12T23:41:02.142Z,0.80
2019-01-12T23:43:29.288Z,0.90
2019-01-12T23:45:56.467Z,0.82
2019-01-12T23:48:23.588Z,0.95
2019-01-12T23:50:50.723Z,1.00
2019-01-12T23:53:17.846Z,0.70
2019-01-12T23:55:45.053Z,0.88
2019-01-12T23:58:12.250Z,0.90
